createdAt,value
2022-08-22T00:02:23.747Z,99826.38
2022-08-22T00:03:07.041Z,99832.66
2022-08-22T00:03:12.457Z,99868.81
2022-08-22T00:05:08.753Z,99830.34
2022-08-22T00:08:18.889Z,99828.84
2022-08-22T00:10:59.528Z,99828.53
2022-08-22T00:13:52.683Z,99829.56
2022-08-22T00:16:46.591Z,99830.53
2022-08-22T00:19:31.553Z,99833.47
2022-08-22T00:22:26.875Z,99826.22
2022-08-22T00:25:37.261Z,99819.44
2022-08-22T00:28:09.907Z,99817.84
2022-08-22T00:30:56.373Z,99817.50
2022-08-22T00:33:34.476Z,99809.25
2022-08-22T00:36:24.407Z,99794.63
2022-08-22T00:39:07.842Z,99805.16
2022-08-22T00:42:08.183Z,99804.25
2022-08-22T00:44:54.456Z,99802.47
2022-08-22T00:47:43.353Z,99796.88
2022-08-22T00:50:25.808Z,99803.56
2022-08-22T00:53:11.429Z,99814.97
2022-08-22T00:56:03.864Z,99810.88
2022-08-22T00:58:45.715Z,99800.19
2022-08-22T01:01:15.502Z,99803.22
2022-08-22T01:03:46.727Z,99803.66
2022-08-22T01:06:39.834Z,99794.03
2022-08-22T01:09:38.014Z,99790.03
2022-08-22T01:12:11.918Z,99782.56
2022-08-22T01:14:57.801Z,99780.50
2022-08-22T01:17:33.766Z,99774.38
2022-08-22T01:20:21.783Z,99789.44
2022-08-22T01:23:08.947Z,99783.03
2022-08-22T01:26:13.141Z,99783.25
2022-08-22T01:29:13.666Z,99779.16
2022-08-22T01:32:01.188Z,99789.44
2022-08-22T01:34:40.004Z,99785.78
2022-08-22T01:37:25.355Z,99771.25
2022-08-22T01:40:16.950Z,99774.84
2022-08-22T01:42:46.832Z,99776.56
2022-08-22T01:45:16.580Z,99774.75
2022-08-22T01:47:50.568Z,99760.00
2022-08-22T01:50:36.806Z,99765.53
2022-08-22T01:53:24.100Z,99764.47
2022-08-22T01:56:08.532Z,99772.28
2022-08-22T01:58:37.746Z,99773.13
2022-08-22T02:01:16.996Z,99769.41
2022-08-22T02:03:55.533Z,99779.09
2022-08-22T02:06:44.766Z,99772.53
2022-08-22T02:09:23.412Z,99777.38
2022-08-22T02:11:57.954Z,99769.94
2022-08-22T02:14:27.875Z,99768.88
2022-08-22T02:17:07.483Z,99765.13
2022-08-22T02:19:40.106Z,99764.63
2022-08-22T02:22:27.005Z,99764.16
2022-08-22T02:25:09.061Z,99768.91
2022-08-22T02:27:55.183Z,99762.16
2022-08-22T02:30:30.567Z,99764.38
2022-08-22T02:33:10.936Z,99757.88
2022-08-22T02:35:48.387Z,99756.41
2022-08-22T02:38:25.593Z,99755.50
2022-08-22T02:41:23.279Z,99756.91
2022-08-22T02:43:56.221Z,99751.59
2022-08-22T02:46:49.605Z,99753.31
2022-08-22T02:49:30.849Z,99751.25
2022-08-22T02:52:09.926Z,99743.47
2022-08-22T02:54:45.308Z,99751.13
2022-08-22T02:57:20.225Z,99745.13
2022-08-22T03:00:30.654Z,99751.84
2022-08-22T03:03:14.503Z,99753.41
2022-08-22T03:05:41.612Z,99750.34
2022-08-22T03:08:13.800Z,99744.75
2022-08-22T03:10:47.378Z,99745.66
2022-08-22T03:13:24.733Z,99748.22
2022-08-22T03:16:09.352Z,99739.09
2022-08-22T03:19:18.765Z,99745.19
2022-08-22T03:21:45.733Z,99743.72
2022-08-22T03:24:29.575Z,99742.69
2022-08-22T03:27:32.270Z,99734.22
2022-08-22T03:30:21.688Z,99742.06
2022-08-22T03:32:59.505Z,99745.50
2022-08-22T03:35:39.286Z,99748.63
2022-08-22T03:38:14.648Z,99738.03
2022-08-22T03:40:56.493Z,99752.28
2022-08-22T03:43:54.180Z,99755.50
2022-08-22T03:47:08.419Z,99756.34
2022-08-22T03:49:59.534Z,99757.38
2022-08-22T03:53:10.271Z,99755.41
2022-08-22T03:56:13.901Z,99747.41
2022-08-22T03:59:31.599Z,99743.97
2022-08-22T04:02:24.736Z,99742.78
2022-08-22T04:05:29.672Z,99755.00
2022-08-22T04:08:15.088Z,99757.28
2022-08-22T04:11:03.708Z,99759.97
2022-08-22T04:14:07.781Z,99758.31
2022-08-22T04:16:43.607Z,99770.31
2022-08-22T04:19:14.010Z,99772.16
2022-08-22T04:21:40.610Z,99764.09
2022-08-22T04:24:24.344Z,99769.63
2022-08-22T04:27:19.592Z,99766.94
2022-08-22T04:29:59.782Z,99762.47
2022-08-22T04:32:41.602Z,99753.81
2022-08-22T04:35:11.293Z,99767.84
2022-08-22T04:38:02.701Z,99771.78
2022-08-22T04:40:38.694Z,99765.16
2022-08-22T04:43:15.405Z,99773.41
2022-08-22T04:45:54.207Z,99775.44
2022-08-22T04:48:47.967Z,99784.09
2022-08-22T04:51:33.582Z,99768.97
2022-08-22T04:54:53.146Z,99775.00
2022-08-22T04:57:23.299Z,99778.50
2022-08-22T04:59:51.166Z,99781.03
2022-08-22T05:02:28.019Z,99788.66
2022-08-22T05:05:13.111Z,99782.66
2022-08-22T05:07:46.810Z,99783.09
2022-08-22T05:10:19.274Z,99784.97
2022-08-22T05:12:54.267Z,99786.00
2022-08-22T05:15:33.112Z,99778.06
2022-08-22T05:18:06.579Z,99779.63
2022-08-22T05:20:36.370Z,99776.56
2022-08-22T05:23:17.203Z,99779.47
2022-08-22T05:25:48.484Z,99788.13
2022-08-22T05:28:39.305Z,99778.19
2022-08-22T05:31:11.833Z,99783.78
2022-08-22T05:33:43.859Z,99790.81
2022-08-22T05:36:19.576Z,99787.09
2022-08-22T05:39:12.821Z,99784.19
2022-08-22T05:41:41.367Z,99778.66
2022-08-22T05:44:36.565Z,99786.09
2022-08-22T05:47:06.236Z,99782.38
2022-08-22T05:49:42.192Z,99793.94
2022-08-22T05:52:33.141Z,99779.47
2022-08-22T05:55:15.737Z,99787.69
2022-08-22T05:57:50.280Z,99797.63
2022-08-22T06:00:22.186Z,99794.34
2022-08-22T06:03:10.894Z,99796.41
2022-08-22T06:05:42.705Z,99794.19
2022-08-22T06:08:32.229Z,99801.19
2022-08-22T06:11:06.771Z,99796.44
2022-08-22T06:13:47.257Z,99804.50
2022-08-22T06:16:33.689Z,99794.47
2022-08-22T06:19:03.132Z,99799.22
2022-08-22T06:21:39.403Z,99797.38
2022-08-22T06:24:09.938Z,99802.75
2022-08-22T06:26:46.093Z,99802.75
2022-08-22T06:29:40.147Z,99805.56
2022-08-22T06:32:59.387Z,99807.66
2022-08-22T06:36:00.154Z,99818.81
2022-08-22T06:38:34.952Z,99816.75
2022-08-22T06:41:06.814Z,99819.06
2022-08-22T06:43:44.172Z,99820.28
2022-08-22T06:46:14.436Z,99826.63
2022-08-22T06:48:41.544Z,99817.09
2022-08-22T06:51:08.916Z,99820.94
2022-08-22T06:53:48.141Z,99827.56
2022-08-22T06:56:30.428Z,99825.31
2022-08-22T06:59:02.815Z,99828.63
2022-08-22T07:01:44.059Z,99830.47
2022-08-22T07:04:11.663Z,99827.19
2022-08-22T07:06:42.582Z,99827.56
2022-08-22T07:09:20.873Z,99826.53
2022-08-22T07:11:48.547Z,99826.56
2022-08-22T07:14:18.119Z,99825.09
2022-08-22T07:16:50.511Z,99828.25
2022-08-22T07:19:39.572Z,99832.34
2022-08-22T07:22:14.119Z,99828.38
2022-08-22T07:24:47.503Z,99828.97
2022-08-22T07:27:27.791Z,99819.88
2022-08-22T07:30:10.189Z,99824.38
2022-08-22T07:33:23.643Z,99829.38
2022-08-22T07:35:56.147Z,99824.84
2022-08-22T07:38:45.164Z,99831.44
2022-08-22T07:41:28.690Z,99835.81
2022-08-22T07:44:16.209Z,99842.06
2022-08-22T07:46:57.355Z,99843.06
2022-08-22T07:49:30.494Z,99838.72
2022-08-22T07:52:10.951Z,99838.28
2022-08-22T07:54:48.335Z,99844.88
2022-08-22T07:57:25.712Z,99838.28
2022-08-22T07:59:55.715Z,99845.31
2022-08-22T08:02:24.626Z,99839.97
2022-08-22T08:04:55.144Z,99842.25
2022-08-22T08:07:25.401Z,99840.97
2022-08-22T08:10:09.925Z,99843.00
2022-08-22T08:12:58.013Z,99846.75
2022-08-22T08:15:31.923Z,99857.09
2022-08-22T08:18:01.965Z,99852.13
2022-08-22T08:20:30.418Z,99846.09
2022-08-22T08:22:59.370Z,99855.59
2022-08-22T08:25:29.333Z,99853.53
2022-08-22T08:28:18.172Z,99851.47
2022-08-22T08:31:07.487Z,99865.13
2022-08-22T08:33:39.695Z,99865.97
2022-08-22T08:36:27.909Z,99860.97
2022-08-22T08:39:14.082Z,99861.19
2022-08-22T08:41:40.947Z,99863.28
2022-08-22T08:44:22.668Z,99873.94
2022-08-22T08:47:11.616Z,99864.91
2022-08-22T08:49:56.201Z,99875.59
2022-08-22T08:52:52.789Z,99871.44
2022-08-22T08:55:44.554Z,99875.78
2022-08-22T08:58:30.293Z,99885.09
2022-08-22T09:01:16.818Z,99885.50
2022-08-22T09:03:58.617Z,99880.03
2022-08-22T09:06:43.304Z,99883.19
2022-08-22T09:09:38.365Z,99883.19
2022-08-22T09:12:20.843Z,99878.03
2022-08-22T09:14:57.446Z,99882.53
2022-08-22T09:17:51.836Z,99884.38
2022-08-22T09:20:25.391Z,99876.72
2022-08-22T09:23:16.949Z,99874.63
2022-08-22T09:25:57.538Z,99880.03
2022-08-22T09:28:40.089Z,99876.16
2022-08-22T09:31:33.077Z,99873.06
2022-08-22T09:34:24.041Z,99874.75
2022-08-22T09:36:55.316Z,99872.56
2022-08-22T09:39:49.500Z,99879.69
2022-08-22T09:42:39.848Z,99873.91
2022-08-22T09:45:11.852Z,99860.34
2022-08-22T09:48:08.271Z,99865.25
2022-08-22T09:50:54.687Z,99864.41
2022-08-22T09:53:50.130Z,99867.31
2022-08-22T09:56:26.484Z,99867.25
2022-08-22T09:59:12.218Z,99868.53
2022-08-22T10:01:44.628Z,99869.75
2022-08-22T10:04:14.388Z,99881.47
2022-08-22T10:06:54.737Z,99873.41
2022-08-22T10:09:31.350Z,99870.16
2022-08-22T10:12:19.463Z,99879.84
2022-08-22T10:15:15.283Z,99874.41
2022-08-22T10:17:59.738Z,99883.72
2022-08-22T10:20:36.896Z,99872.56
2022-08-22T10:23:21.484Z,99871.72
2022-08-22T10:25:50.063Z,99874.59
2022-08-22T10:28:43.080Z,99878.75
2022-08-22T10:31:34.862Z,99883.72
2022-08-22T10:34:27.611Z,99891.38
2022-08-22T10:37:24.104Z,99886.34
2022-08-22T10:40:15.931Z,99889.03
2022-08-22T10:43:12.895Z,99881.84
2022-08-22T10:45:43.941Z,99887.78
2022-08-22T10:48:10.629Z,99883.19
2022-08-22T10:50:48.983Z,99885.66
2022-08-22T10:53:34.628Z,99887.84
2022-08-22T10:56:09.741Z,99888.59
2022-08-22T10:58:56.023Z,99885.06
2022-08-22T11:01:37.630Z,99885.66
2022-08-22T11:04:28.299Z,99890.59
2022-08-22T11:07:17.493Z,99888.06
2022-08-22T11:09:57.048Z,99887.19
2022-08-22T11:12:41.742Z,99890.69
2022-08-22T11:15:40.668Z,99894.63
2022-08-22T11:18:42.835Z,99886.56
2022-08-22T11:21:59.970Z,99892.78
2022-08-22T11:24:30.123Z,99894.19
2022-08-22T11:27:34.444Z,99888.41
2022-08-22T11:30:14.479Z,99894.59
2022-08-22T11:33:17.833Z,99888.31
2022-08-22T11:35:56.015Z,99892.28
2022-08-22T11:38:32.590Z,99893.69
2022-08-22T11:41:09.528Z,99888.53
2022-08-22T11:43:51.567Z,99889.38
2022-08-22T11:46:39.529Z,99900.50
2022-08-22T11:49:34.193Z,99895.50
2022-08-22T11:52:06.952Z,99884.09
2022-08-22T11:54:54.402Z,99892.00
2022-08-22T11:57:32.932Z,99892.00
2022-08-22T12:00:03.269Z,99897.38
2022-08-22T12:03:02.680Z,99893.63
2022-08-22T12:05:51.956Z,99887.81
2022-08-22T12:08:43.518Z,99885.72
2022-08-22T12:11:19.886Z,99881.84
2022-08-22T12:14:04.027Z,99892.75
2022-08-22T12:16:36.008Z,99893.34
2022-08-22T12:19:24.287Z,99893.72
2022-08-22T12:21:53.998Z,99902.09
2022-08-22T12:24:51.802Z,99901.06
2022-08-22T12:27:28.470Z,99891.50
2022-08-22T12:30:33.440Z,99899.13
2022-08-22T12:33:24.915Z,99897.47
2022-08-22T12:36:03.129Z,99905.28
2022-08-22T12:38:52.838Z,99893.72
2022-08-22T12:41:38.480Z,99901.81
2022-08-22T12:44:23.415Z,99896.66
2022-08-22T12:47:19.089Z,99897.53
2022-08-22T12:50:19.861Z,99886.94
2022-08-22T12:53:27.515Z,99893.06
2022-08-22T12:56:16.093Z,99890.00
2022-08-22T12:59:17.819Z,99881.56
2022-08-22T13:01:50.504Z,99886.03
2022-08-22T13:04:32.611Z,99888.72
2022-08-22T13:07:23.254Z,99894.72
2022-08-22T13:10:22.182Z,99892.47
2022-08-22T13:12:54.145Z,99893.88
2022-08-22T13:15:24.532Z,99891.41
2022-08-22T13:17:52.578Z,99892.03
2022-08-22T13:20:28.646Z,99885.66
2022-08-22T13:22:56.578Z,99889.16
2022-08-22T13:25:29.950Z,99890.38
2022-08-22T13:28:01.086Z,99896.19
2022-08-22T13:30:30.951Z,99899.25
2022-08-22T13:33:10.256Z,99892.91
2022-08-22T13:35:54.083Z,99889.84
2022-08-22T13:38:30.557Z,99882.66
2022-08-22T13:40:59.273Z,99894.78
2022-08-22T13:43:31.085Z,99902.03
2022-08-22T13:46:02.432Z,99901.81
2022-08-22T13:48:49.845Z,99898.56
2022-08-22T13:52:00.412Z,99900.66
2022-08-22T13:54:40.649Z,99909.69
2022-08-22T13:57:27.151Z,99903.50
2022-08-22T14:00:06.497Z,99899.63
2022-08-22T14:02:39.114Z,99903.94
2022-08-22T14:05:17.409Z,99911.81
2022-08-22T14:07:53.007Z,99889.16
2022-08-22T14:10:29.847Z,99902.63
2022-08-22T14:12:56.574Z,99904.09
2022-08-22T14:15:32.343Z,99894.53
2022-08-22T14:18:20.722Z,99894.78
2022-08-22T14:21:27.785Z,99901.94
2022-08-22T14:24:00.234Z,99900.91
2022-08-22T14:26:32.831Z,99894.88
2022-08-22T14:29:11.593Z,99894.03
2022-08-22T14:31:38.399Z,99892.59
2022-08-22T14:34:10.624Z,99891.56
2022-08-22T14:36:57.570Z,99894.94
2022-08-22T14:39:42.952Z,99893.06
2022-08-22T14:42:19.698Z,99887.91
2022-08-22T14:44:58.393Z,99896.56
2022-08-22T14:47:54.258Z,99891.84
2022-08-22T14:50:33.697Z,99881.72
2022-08-22T14:53:26.062Z,99892.59
2022-08-22T14:56:22.449Z,99900.66
2022-08-22T14:59:01.411Z,99899.63
2022-08-22T15:01:32.754Z,99896.31
2022-08-22T15:04:34.997Z,99901.28
2022-08-22T15:07:04.914Z,99908.81
2022-08-22T15:09:41.527Z,99903.44
2022-08-22T15:12:46.562Z,99900.75
2022-08-22T15:15:27.701Z,99899.56
2022-08-22T15:17:55.106Z,99896.78
2022-08-22T15:20:27.942Z,99901.81
2022-08-22T15:23:00.776Z,99898.06
2022-08-22T15:25:33.404Z,99895.81
2022-08-22T15:28:14.200Z,99898.28
2022-08-22T15:31:03.785Z,99889.78
2022-08-22T15:33:40.170Z,99890.19
2022-08-22T15:36:18.796Z,99894.94
2022-08-22T15:38:48.142Z,99896.25
2022-08-22T15:41:37.005Z,99888.13
2022-08-22T15:44:32.283Z,99896.44
2022-08-22T15:47:24.264Z,99896.78
2022-08-22T15:50:00.595Z,99891.56
2022-08-22T15:52:31.710Z,99898.22
2022-08-22T15:55:20.398Z,99894.94
2022-08-22T15:58:07.949Z,99897.97
2022-08-22T16:01:02.874Z,99899.84
2022-08-22T16:03:33.140Z,99897.97
2022-08-22T16:06:07.469Z,99904.44
2022-08-22T16:08:37.331Z,99904.50
2022-08-22T16:11:03.995Z,99910.09
2022-08-22T16:13:30.680Z,99911.81
2022-08-22T16:16:00.253Z,99911.19
2022-08-22T16:18:45.120Z,99912.44
2022-08-22T16:21:14.776Z,99906.78
2022-08-22T16:23:56.913Z,99905.75
2022-08-22T16:26:31.630Z,99905.81
2022-08-22T16:29:35.552Z,99911.41
2022-08-22T16:32:10.787Z,99910.44
2022-08-22T16:34:37.435Z,99915.41
2022-08-22T16:37:18.006Z,99916.03
2022-08-22T16:39:50.801Z,99922.25
2022-08-22T16:42:23.413Z,99917.97
2022-08-22T16:45:06.294Z,99915.63
2022-08-22T16:47:33.661Z,99920.25
2022-08-22T16:50:06.208Z,99924.63
2022-08-22T16:52:51.968Z,99921.56
2022-08-22T16:55:30.953Z,99931.72
2022-08-22T16:58:11.965Z,99927.59
2022-08-22T17:01:14.619Z,99931.53
2022-08-22T17:03:47.516Z,99929.84
2022-08-22T17:06:23.951Z,99931.16
2022-08-22T17:09:27.788Z,99931.97
2022-08-22T17:12:42.624Z,99934.34
2022-08-22T17:15:28.515Z,99931.13
2022-08-22T17:18:13.531Z,99935.84
2022-08-22T17:21:01.492Z,99930.03
2022-08-22T17:23:51.504Z,99919.69
2022-08-22T17:26:45.004Z,99918.00
2022-08-22T17:29:41.894Z,99922.13
2022-08-22T17:32:59.079Z,99912.22
2022-08-22T17:35:45.296Z,99929.19
2022-08-22T17:38:40.881Z,99926.91
2022-08-22T17:41:39.528Z,99929.59
2022-08-22T17:44:21.584Z,99928.13
2022-08-22T17:47:15.053Z,99931.47
2022-08-22T17:49:41.722Z,99943.22
2022-08-22T17:52:27.888Z,99943.03
2022-08-22T17:55:05.691Z,99945.72
2022-08-22T17:57:52.357Z,99953.13
2022-08-22T18:00:33.344Z,99953.19
2022-08-22T18:03:22.234Z,99956.84
2022-08-22T18:05:53.493Z,99967.81
2022-08-22T18:11:51.248Z,99969.28
2022-08-22T18:14:49.028Z,99969.88
2022-08-22T18:17:35.451Z,99965.13
2022-08-22T18:20:43.119Z,99971.09
2022-08-22T18:23:36.136Z,99977.53
2022-08-22T18:26:20.801Z,99980.69
2022-08-22T18:28:54.429Z,99985.63
2022-08-22T18:31:29.096Z,99987.47
2022-08-22T18:34:03.014Z,99992.84
2022-08-22T18:36:34.777Z,99988.47
2022-08-22T18:39:14.115Z,99996.06
2022-08-22T18:41:40.756Z,99994.88
2022-08-22T18:44:17.968Z,99988.44
2022-08-22T18:46:51.696Z,99985.16
2022-08-22T18:49:19.621Z,99999.03
2022-08-22T18:52:08.534Z,99995.91
2022-08-22T18:54:41.005Z,99995.25
2022-08-22T18:57:24.346Z,100001.66
2022-08-22T19:00:20.765Z,100002.03
2022-08-22T19:03:03.636Z,100001.88
2022-08-22T19:05:42.155Z,99995.69
2022-08-22T19:08:37.073Z,99990.75
2022-08-22T19:11:36.451Z,100000.25
2022-08-22T19:14:40.707Z,99999.03
2022-08-22T19:17:39.249Z,99997.16
2022-08-22T19:20:50.923Z,100002.34
2022-08-22T19:23:46.828Z,100000.44
2022-08-22T19:26:26.042Z,99996.97
2022-08-22T19:29:24.970Z,99993.66
2022-08-22T19:32:02.070Z,99992.44
2022-08-22T19:34:33.187Z,99989.75
2022-08-22T19:37:33.722Z,99988.91
2022-08-22T19:40:07.487Z,99982.16
2022-08-22T19:42:38.174Z,99982.75
2022-08-22T19:45:28.793Z,99995.38
2022-08-22T19:48:00.473Z,99992.50
2022-08-22T19:50:34.970Z,99994.38
2022-08-22T19:53:18.450Z,100002.22
2022-08-22T19:56:16.897Z,99994.75
2022-08-22T19:58:51.875Z,100006.31
2022-08-22T20:01:40.843Z,100020.56
2022-08-22T20:04:45.263Z,100021.81
2022-08-22T20:07:45.578Z,100029.31
2022-08-22T20:10:48.497Z,100040.25
2022-08-22T20:13:28.097Z,100046.66
2022-08-22T20:16:13.480Z,100050.41
2022-08-22T20:19:05.183Z,100055.78
2022-08-22T20:22:00.095Z,100049.84
2022-08-22T20:24:32.884Z,100046.13
2022-08-22T20:27:15.119Z,100049.25
2022-08-22T20:29:47.270Z,100045.72
2022-08-22T20:32:18.065Z,100048.84
2022-08-22T20:34:46.595Z,100055.00
2022-08-22T20:37:35.545Z,100055.41
2022-08-22T20:40:03.665Z,100052.75
2022-08-22T20:42:35.181Z,100045.94
2022-08-22T20:45:12.169Z,100046.38
2022-08-22T20:47:41.126Z,100041.44
2022-08-22T20:50:12.717Z,100043.31
2022-08-22T20:52:51.890Z,100041.44
2022-08-22T20:55:31.689Z,100040.41
2022-08-22T20:58:04.361Z,100036.88
2022-08-22T21:00:45.462Z,100026.56
2022-08-22T21:03:14.861Z,100028.81
2022-08-22T21:05:44.685Z,100020.75
2022-08-22T21:08:20.037Z,100018.69
2022-08-22T21:11:15.800Z,100019.09
2022-08-22T21:13:42.531Z,100016.00
2022-08-22T21:16:15.567Z,100016.22
2022-08-22T21:18:48.796Z,100012.09
2022-08-22T21:21:33.986Z,100013.34
2022-08-22T21:24:05.953Z,100015.84
2022-08-22T21:26:40.543Z,100002.84
2022-08-22T21:29:13.481Z,100005.31
2022-08-22T21:32:09.613Z,100006.78
2022-08-22T21:34:49.053Z,99998.94
2022-08-22T21:37:17.868Z,99990.91
2022-08-22T21:39:49.838Z,99999.34
2022-08-22T21:42:38.075Z,100007.38
2022-08-22T21:45:09.926Z,100005.72
2022-08-22T21:47:42.400Z,100011.50
2022-08-22T21:50:23.418Z,100012.09
2022-08-22T21:52:56.350Z,100001.41
2022-08-22T21:55:34.820Z,100004.31
2022-08-22T21:58:36.742Z,100010.06
2022-08-22T22:01:28.060Z,100013.34
2022-08-22T22:03:56.610Z,100001.38
2022-08-22T22:06:23.341Z,99998.72
2022-08-22T22:08:50.120Z,100004.28
2022-08-22T22:11:17.424Z,100000.97
2022-08-22T22:13:45.452Z,100004.28
2022-08-22T22:16:12.614Z,100007.16
2022-08-22T22:18:40.631Z,100004.69
2022-08-22T22:21:08.110Z,100016.88
2022-08-22T22:23:34.976Z,100012.09
2022-08-22T22:26:04.039Z,100010.03
2022-08-22T22:28:38.047Z,100019.13
2022-08-22T22:31:05.356Z,100005.53
2022-08-22T22:33:38.016Z,100011.50
2022-08-22T22:36:09.070Z,100007.56
2022-08-22T22:38:37.849Z,100006.34
2022-08-22T22:41:04.766Z,100002.00
2022-08-22T22:43:31.596Z,100009.25
2022-08-22T22:45:59.075Z,100010.69
2022-08-22T22:48:25.855Z,100007.16
2022-08-22T22:50:53.382Z,100019.34
2022-08-22T22:53:21.534Z,100010.69
2022-08-22T22:56:00.731Z,100016.28
2022-08-22T22:58:28.710Z,100018.75
2022-08-22T23:00:56.401Z,100016.06
2022-08-22T23:03:23.423Z,100012.56
2022-08-22T23:05:50.161Z,100021.84
2022-08-22T23:08:16.940Z,100019.56
2022-08-22T23:10:43.748Z,100024.91
2022-08-22T23:13:10.505Z,100017.28
2022-08-22T23:15:37.378Z,100020.78
2022-08-22T23:18:04.399Z,100024.50
2022-08-22T23:20:31.160Z,100035.25
2022-08-22T23:22:59.591Z,100030.28
2022-08-22T23:25:26.770Z,100035.66
2022-08-22T23:27:53.584Z,100032.38
2022-08-22T23:30:21.976Z,100029.28
2022-08-22T23:32:48.753Z,100023.28
2022-08-22T23:35:15.639Z,100029.28
2022-08-22T23:37:42.300Z,100021.22
2022-08-22T23:40:10.324Z,100017.31
2022-08-22T23:42:37.211Z,100036.06
2022-08-22T23:45:04.404Z,100030.28
2022-08-22T23:47:31.141Z,100032.59
2022-08-22T23:49:57.941Z,100034.44
2022-08-22T23:52:25.888Z,100028.03
2022-08-22T23:54:55.710Z,100024.31
2022-08-22T23:57:26.578Z,100029.47
2022-08-22T23:59:58.533Z,100030.91
